Time;durP1;ratioP1;P1;durP2;ratioP2;P2;SDS_P1;SDS_P2;PMS_P1;PMS_P2;Temp;Humidity;BMP_temperature;BMP_pressure;BME280_temperature;BME280_humidity;BME280_pressure;Samples;Min_cycle;Max_cycle;Signal;HPM_P1;HPM_P2
2022/12/15 00:38:51;;;;;;;;;65.75;48.50;;;;;2.71;55.25;100233.34;5098976;27;45423;-45
2022/12/15 00:41:17;;;;;;;;;52.75;45.50;;;;;2.70;55.29;100238.72;5099509;27;45227;-45
2022/12/15 00:43:43;;;;;;;;;64.50;45.00;;;;;2.69;55.27;100242.25;5099594;27;45354;-45
2022/12/15 00:48:53;;;;;;;;;58.25;48.00;;;;;2.66;55.65;100239.88;5098946;27;45463;-48
2022/12/15 00:51:19;;;;;;;;;61.50;42.25;;;;;2.69;55.44;100245.72;5099251;27;45474;-44
2022/12/15 01:21:08;;;;;;;;;56.25;45.50;;;;;2.53;55.58;100260.91;5098655;27;45445;-47
2022/12/15 01:23:35;;;;;;;;;60.00;46.25;;;;;2.12;55.88;100209.50;5098475;27;45534;-52
2022/12/15 01:26:01;;;;;;;;;64.25;50.00;;;;;2.34;56.26;100257.88;5098737;27;45467;-44
2022/12/15 01:28:27;;;;;;;;;68.50;48.25;;;;;2.42;56.25;100276.56;5098166;27;46292;-45
2022/12/15 01:30:52;;;;;;;;;54.75;38.00;;;;;2.39;56.50;100268.88;5098115;27;45499;-51
2022/12/15 01:33:19;;;;;;;;;57.00;48.25;;;;;2.37;56.20;100270.78;5098584;27;45257;-45
2022/12/15 01:35:45;;;;;;;;;50.75;42.00;;;;;2.31;56.67;100271.19;5098326;27;45215;-48
2022/12/15 01:38:10;;;;;;;;;60.00;43.50;;;;;2.25;56.53;100268.06;5098108;27;45519;-48
2022/12/15 01:40:45;;;;;;;;;52.00;39.50;;;;;2.21;56.29;100263.97;5098145;27;45456;-49
2022/12/15 01:43:23;;;;;;;;;67.50;51.00;;;;;2.17;56.52;100280.03;5098360;27;45491;-46
2022/12/15 01:45:54;;;;;;;;;46.50;40.50;;;;;2.16;56.96;100281.81;5098470;27;45402;-46
2022/12/15 01:48:28;;;;;;;;;52.00;45.75;;;;;2.12;56.89;100280.34;5098027;27;46429;-53
2022/12/15 01:51:00;;;;;;;;;55.25;44.00;;;;;2.09;57.05;100283.16;5097849;27;45337;-47
2022/12/15 01:53:27;;;;;;;;;58.75;45.50;;;;;2.08;56.99;100284.09;5098035;27;45464;-46
2022/12/15 01:55:54;;;;;;;;;66.25;48.00;;;;;2.03;57.42;100280.97;5098329;27;45532;-46
2022/12/15 01:58:20;;;;;;;;;66.50;48.00;;;;;2.03;57.24;100280.13;5098079;27;45215;-51
2022/12/15 02:00:46;;;;;;;;;61.50;46.00;;;;;1.99;56.74;100290.81;5098055;27;45307;-51
2022/12/15 02:03:12;;;;;;;;;60.50;45.75;;;;;1.97;57.33;100292.69;5098011;27;45448;-47
2022/12/15 02:05:39;;;;;;;;;50.25;38.00;;;;;1.94;57.34;100278.97;5098492;27;45464;-44
2022/12/15 02:08:06;;;;;;;;;115.00;84.67;;;;;1.93;57.39;100282.50;5098205;27;45291;-46
2022/12/15 02:11:10;;;;;;;;;66.75;51.00;;;;;1.92;57.28;100270.34;5097758;27;45397;-47
2022/12/15 02:13:54;;;;;;;;;57.25;44.00;;;;;1.89;57.42;100263.50;5034872;28;45339;-48
2022/12/15 02:17:03;;;;;;;;;52.00;46.50;;;;;1.87;57.28;100259.31;5035010;28;45515;-46
2022/12/15 02:20:02;;;;;;;;;59.25;45.50;;;;;1.84;57.63;100268.22;5034437;28;45560;-45
2022/12/15 02:22:55;;;;;;;;;65.75;47.00;;;;;1.84;57.74;100278.72;5034470;28;45385;-45
2022/12/15 02:25:49;;;;;;;;;57.25;45.25;;;;;1.84;57.90;100285.75;5034451;28;45353;-47
2022/12/15 02:28:33;;;;;;;;;59.75;46.00;;;;;1.86;57.97;100278.63;4936644;28;45292;-45
2022/12/15 02:33:56;;;;;;;;;56.25;45.25;;;;;1.85;57.87;100280.38;4936316;28;45477;-46
2022/12/15 02:36:32;;;;;;;;;52.50;43.50;;;;;1.85;57.84;100276.94;4936202;28;45483;-45
2022/12/15 02:38:57;;;;;;;;;68.25;48.00;;;;;1.75;57.41;100258.34;4936339;28;45534;-50
2022/12/15 02:41:39;;;;;;;;;58.25;44.25;;;;;1.87;57.81;100280.31;4936282;28;45320;-52
2022/12/15 02:44:27;;;;;;;;;67.50;51.75;;;;;1.84;57.51;100288.38;4936012;28;45450;-49
2022/12/15 02:47:31;;;;;;;;;66.50;47.75;;;;;1.84;57.65;100283.13;4936245;28;45441;-44
2022/12/15 02:50:30;;;;;;;;;55.25;44.75;;;;;1.81;57.48;100280.69;4952577;28;45471;-53
2022/12/15 02:53:35;;;;;;;;;54.75;47.50;;;;;1.80;57.78;100289.50;5014178;28;46203;-47
2022/12/15 02:56:17;;;;;;;;;61.00;44.50;;;;;1.77;57.35;100287.09;5014090;28;45497;-44
2022/12/15 02:59:12;;;;;;;;;71.25;48.75;;;;;1.78;57.72;100292.25;5014395;28;45296;-45
2022/12/15 03:01:49;;;;;;;;;69.50;47.50;;;;;1.78;57.72;100292.25;5014525;28;45354;-51
2022/12/15 03:04:16;;;;;;;;;67.50;48.00;;;;;1.80;57.81;100290.34;5040713;27;45549;-51
2022/12/15 03:06:41;;;;;;;;;62.25;48.25;;;;;1.81;57.54;100291.19;5097279;27;45401;-47
2022/12/15 03:09:07;;;;;;;;;66.75;50.50;;;;;1.77;57.74;100274.84;5096897;27;45469;-53
2022/12/15 03:11:33;;;;;;;;;61.25;47.50;;;;;1.69;57.67;100270.09;5097398;27;45264;-52
2022/12/15 03:13:58;;;;;;;;;44.50;42.50;;;;;1.75;57.70;100280.16;5096729;27;46090;-52
2022/12/15 03:16:24;;;;;;;;;62.50;45.25;;;;;1.71;57.82;100268.19;5096865;27;45234;-48
2022/12/15 03:18:51;;;;;;;;;58.25;46.25;;;;;1.69;57.92;100271.88;5100507;27;45266;-50
2022/12/15 03:21:16;;;;;;;;;61.00;47.75;;;;;1.67;57.67;100276.38;5100598;27;45460;-51
2022/12/15 03:23:41;;;;;;;;;67.75;50.75;;;;;1.60;57.65;100286.44;5100161;27;46294;-54
2022/12/15 03:26:07;;;;;;;;;53.75;45.50;;;;;1.51;57.96;100268.66;5100447;27;45447;-54
2022/12/15 03:28:33;;;;;;;;;58.25;45.25;;;;;1.56;57.92;100279.72;5100436;27;45321;-56
2022/12/15 03:30:58;;;;;;;;;57.00;47.25;;;;;1.55;57.82;100280.63;5100735;27;45431;-55
2022/12/15 03:33:23;;;;;;;;;57.25;45.50;;;;;1.50;58.36;100283.56;5099986;27;46163;-54
2022/12/15 03:35:50;;;;;;;;;54.00;48.00;;;;;1.49;58.43;100283.66;5100085;27;45412;-48
2022/12/15 03:38:15;;;;;;;;;64.50;45.50;;;;;1.47;58.12;100281.13;5100315;27;45382;-52
2022/12/15 03:40:40;;;;;;;;;48.50;41.00;;;;;1.46;58.48;100276.00;5100300;27;45290;-53
2022/12/15 03:43:06;;;;;;;;;55.00;46.00;;;;;1.45;58.50;100280.41;5099443;27;45299;-46
2022/12/15 03:45:31;;;;;;;;;55.75;42.50;;;;;1.46;59.12;100276.84;5099915;27;45252;-54
2022/12/15 03:47:56;;;;;;;;;70.00;49.75;;;;;1.44;58.26;100267.41;5100068;27;45395;-52
2022/12/15 03:50:25;;;;;;;;;61.25;50.00;;;;;1.44;58.55;100264.78;5100111;27;45519;-49
2022/12/15 03:52:57;;;;;;;;;72.75;48.50;;;;;1.44;58.56;100267.41;5099928;27;45464;-45
2022/12/15 03:55:23;;;;;;;;;66.50;47.25;;;;;1.34;58.57;100256.66;5099733;27;45303;-47
2022/12/15 03:57:49;;;;;;;;;63.25;45.75;;;;;1.43;58.64;100274.44;5099999;27;45345;-51
2022/12/15 04:00:17;;;;;;;;;55.00;48.25;;;;;1.43;58.73;100266.56;5100274;27;45438;-53
2022/12/15 04:02:43;;;;;;;;;52.75;48.00;;;;;1.44;58.87;100273.50;5101854;27;47158;-46
2022/12/15 04:05:16;;;;;;;;;55.50;44.00;;;;;1.45;59.18;100293.50;5100402;27;45452;-45
2022/12/15 04:07:41;;;;;;;;;65.50;45.00;;;;;1.44;58.79;100294.47;5099903;27;45348;-47
2022/12/15 04:10:07;;;;;;;;;65.00;45.00;;;;;1.42;59.10;100288.47;5099899;27;45480;-44
2022/12/15 04:12:32;;;;;;;;;66.50;43.75;;;;;1.43;58.53;100278.81;5099035;27;45447;-46
2022/12/15 04:14:58;;;;;;;;;66.25;48.00;;;;;1.41;58.70;100273.69;5099772;27;45393;-50
2022/12/15 04:17:23;;;;;;;;;55.75;45.75;;;;;1.40;58.76;100273.78;5099541;27;45379;-48
2022/12/15 04:22:32;;;;;;;;;67.50;50.50;;;;;1.44;58.94;100289.22;5099451;27;45342;-48
2022/12/15 05:33:19;;;;;;;;;60.50;46.00;;;;;1.44;58.64;100273.50;5098688;27;45282;-55
2022/12/15 05:35:45;;;;;;;;;62.25;48.50;;;;;1.43;58.81;100261.34;5097162;27;45172;-54
2022/12/15 05:38:10;;;;;;;;;52.00;46.25;;;;;1.44;59.08;100273.50;5098269;27;47153;-51
2022/12/15 05:40:35;;;;;;;;;63.25;47.00;;;;;1.43;58.83;100271.81;5097922;27;45705;-53
2022/12/15 05:43:01;;;;;;;;;54.75;47.25;;;;;1.39;58.63;100278.19;5098133;27;46095;-54
2022/12/15 05:45:27;;;;;;;;;67.25;43.00;;;;;1.39;58.89;100290.44;5098586;27;45406;-55
2022/12/15 05:47:53;;;;;;;;;61.25;49.25;;;;;1.28;58.96;100266.72;5097788;27;45571;-53
2022/12/15 05:50:19;;;;;;;;;60.00;47.50;;;;;1.35;58.63;100281.97;5097975;27;45347;-54
2022/12/15 05:52:45;;;;;;;;;55.00;45.00;;;;;1.33;59.04;100277.75;5098327;27;45388;-53
2022/12/15 05:55:11;;;;;;;;;66.25;48.75;;;;;1.31;59.13;100287.50;5098007;27;45377;-54
2022/12/15 05:57:36;;;;;;;;;58.25;46.00;;;;;1.27;58.66;100281.59;5097969;27;45263;-52
2022/12/15 06:00:04;;;;;;;;;54.00;43.00;;;;;1.27;58.92;100281.59;5097636;27;45384;-54
2022/12/15 06:02:29;;;;;;;;;61.75;46.25;;;;;1.25;59.05;100293.94;5097800;27;45325;-54
2022/12/15 06:04:55;;;;;;;;;58.50;45.00;;;;;1.24;59.34;100295.72;5098213;27;45185;-53
2022/12/15 06:07:20;;;;;;;;;71.00;48.50;;;;;1.23;59.04;100293.22;5097715;27;45358;-53
2022/12/15 06:09:45;;;;;;;;;62.00;47.75;;;;;1.22;59.33;100294.13;5097651;27;45987;-57
2022/12/15 06:12:11;;;;;;;;;58.00;44.50;;;;;1.20;59.25;100296.88;5097837;27;45155;-55
2022/12/15 06:14:36;;;;;;;;;55.50;47.50;;;;;1.20;59.15;100293.41;5098050;27;45414;-54
2022/12/15 06:17:02;;;;;;;;;66.00;48.00;;;;;1.18;59.38;100293.53;5097560;27;47193;-55
2022/12/15 06:19:27;;;;;;;;;67.50;50.75;;;;;1.16;59.25;100284.91;5097717;27;45409;-52
2022/12/15 06:21:52;;;;;;;;;69.25;48.75;;;;;1.15;59.56;100285.84;5097795;27;45290;-54
2022/12/15 06:24:18;;;;;;;;;62.50;44.00;;;;;1.15;59.15;100288.47;5097793;27;45267;-54
2022/12/15 06:26:43;;;;;;;;;62.50;45.25;;;;;1.12;59.23;100293.91;5097289;27;46034;-49
2022/12/15 06:29:10;;;;;;;;;60.25;46.00;;;;;1.12;59.21;100296.50;5097950;27;45389;-50
2022/12/15 06:31:37;;;;;;;;;65.25;48.00;;;;;1.08;59.29;100291.56;5097586;27;45528;-55
2022/12/15 06:34:04;;;;;;;;;60.50;47.00;;;;;1.09;59.60;100295.88;5097723;27;45257;-50
2022/12/15 06:36:29;;;;;;;;;69.25;46.50;;;;;1.05;59.25;100283.91;5097094;27;47324;-48
2022/12/15 06:38:58;;;;;;;;;64.25;48.00;;;;;1.11;59.13;100291.38;5097383;27;45346;-47
2022/12/15 06:41:23;;;;;;;;;56.75;45.00;;;;;1.11;59.97;100289.59;5097565;27;45271;-54
2022/12/15 06:43:54;;;;;;;;;67.50;50.00;;;;;1.12;59.34;100293.91;5097513;27;45302;-52
2022/12/15 06:46:20;;;;;;;;;61.25;48.50;;;;;1.15;59.73;100300.72;5097233;27;47316;-47
2022/12/15 06:48:46;;;;;;;;;62.75;48.00;;;;;1.16;59.62;100294.53;5097218;27;45385;-46
2022/12/15 06:51:13;;;;;;;;;62.75;48.75;;;;;1.16;60.08;100290.13;5097777;27;45479;-49
2022/12/15 06:53:47;;;;;;;;;62.00;47.50;;;;;1.13;59.73;100286.88;5101152;27;45480;-55
2022/12/15 06:56:19;;;;;;;;;66.75;49.00;;;;;1.24;59.62;100308.00;5116550;27;46329;-45
2022/12/15 06:58:49;;;;;;;;;59.00;45.75;;;;;1.28;59.61;100313.88;5100736;27;45334;-47
2022/12/15 07:01:17;;;;;;;;;44.25;36.50;;;;;1.19;59.46;100292.56;5100916;27;45424;-47
2022/12/15 07:03:43;;;;;;;;;53.00;47.25;;;;;1.28;59.25;100306.88;5101097;27;45438;-45
2022/12/15 07:06:10;;;;;;;;;61.25;46.00;;;;;1.32;59.44;100312.75;5100447;27;46156;-46
2022/12/15 07:08:36;;;;;;;;;51.50;46.00;;;;;1.32;59.62;100318.84;5100892;27;45303;-46
2022/12/15 07:11:03;;;;;;;;;65.25;49.50;;;;;1.32;59.12;100312.75;5100733;27;45422;-46
2022/12/15 07:13:29;;;;;;;;;49.75;34.50;;;;;1.32;59.44;100305.72;5100901;27;45353;-45
2022/12/15 07:15:58;;;;;;;;;58.75;48.00;;;;;1.28;59.67;100309.47;5100402;27;46139;-45
2022/12/15 07:18:23;;;;;;;;;70.50;51.25;;;;;1.29;59.22;100310.31;5100327;27;45476;-54
2022/12/15 07:20:48;;;;;;;;;58.50;45.25;;;;;1.24;59.15;100313.25;5100782;27;45205;-52
2022/12/15 07:23:14;;;;;;;;;56.50;46.25;;;;;1.21;59.12;100314.25;5100925;27;45508;-51
2022/12/15 07:25:39;;;;;;;;;57.00;46.50;;;;;1.21;59.54;100322.13;5101084;27;45691;-55
2022/12/15 07:28:05;;;;;;;;;66.75;50.75;;;;;1.21;59.50;100324.75;5101247;27;45416;-53
2022/12/15 07:30:31;;;;;;;;;61.25;48.75;;;;;1.24;59.83;100331.56;5100377;27;45504;-53
2022/12/15 07:32:57;;;;;;;;;54.75;44.25;;;;;1.21;59.32;100337.84;5100610;27;45353;-46
2022/12/15 07:35:23;;;;;;;;;63.50;48.75;;;;;1.27;59.58;100351.53;5098628;27;47247;-46
2022/12/15 07:37:49;;;;;;;;;45.50;35.75;;;;;1.28;59.65;100356.66;5099573;27;45643;-47
2022/12/15 07:40:15;;;;;;;;;60.50;45.00;;;;;1.31;59.92;100359.09;5110262;27;45475;-47
2022/12/15 07:42:40;;;;;;;;;71.00;49.00;;;;;1.33;59.47;100358.97;5097673;27;45513;-46
2022/12/15 07:45:06;;;;;;;;;69.25;45.75;;;;;1.35;59.79;100364.94;5095897;27;46633;-45
2022/12/15 07:47:32;;;;;;;;;67.50;47.25;;;;;1.38;59.56;100364.75;5097113;27;45529;-46
2022/12/15 07:49:58;;;;;;;;;62.75;48.50;;;;;1.39;59.74;100358.56;5096934;27;45362;-45
2022/12/15 07:52:23;;;;;;;;;57.25;48.25;;;;;1.44;59.82;100357.38;5095979;27;45509;-51
2022/12/15 07:54:49;;;;;;;;;59.50;46.25;;;;;1.46;59.34;100360.72;5097106;27;45411;-50
2022/12/15 07:57:15;;;;;;;;;61.25;41.25;;;;;1.46;59.46;100363.34;5097325;27;45413;-54
2022/12/15 07:59:40;;;;;;;;;57.00;51.75;;;;;1.45;59.43;100364.28;5096927;27;45428;-44
2022/12/15 08:02:05;;;;;;;;;60.50;46.25;;;;;1.49;59.40;100370.16;5097411;27;45417;-45
2022/12/15 08:04:31;;;;;;;;;45.75;42.75;;;;;1.51;59.10;100363.03;5096696;27;45374;-47
2022/12/15 08:06:57;;;;;;;;;70.00;52.50;;;;;1.52;59.01;100375.22;5095733;27;45349;-46
2022/12/15 08:09:23;;;;;;;;;66.00;48.25;;;;;1.40;58.83;100357.66;5097277;27;45275;-45
2022/12/15 08:11:49;;;;;;;;;58.50;47.50;;;;;1.45;58.69;100360.81;5097201;27;45863;-47
2022/12/15 08:14:15;;;;;;;;;65.25;48.50;;;;;1.58;58.69;100397.56;5096775;27;45488;-45
2022/12/15 08:16:41;;;;;;;;;47.00;40.50;;;;;1.59;58.77;100405.34;5097062;27;46416;-48
2022/12/15 08:19:10;;;;;;;;;69.00;50.00;;;;;1.59;58.56;100402.72;5096890;27;45409;-46
2022/12/15 08:21:38;;;;;;;;;69.00;50.75;;;;;1.63;58.48;100408.59;5096482;27;45733;-45
2022/12/15 08:24:03;;;;;;;;;67.75;51.25;;;;;1.66;58.46;100414.50;5094873;27;45537;-44
2022/12/15 08:26:29;;;;;;;;;67.00;52.50;;;;;1.69;58.55;100409.06;5096434;27;45514;-49
2022/12/15 08:28:54;;;;;;;;;65.75;51.75;;;;;1.72;58.26;100402.75;5097043;27;45856;-47
2022/12/15 08:31:21;;;;;;;;;69.75;51.25;;;;;1.72;58.26;100400.97;5096573;27;45581;-42
2022/12/15 08:33:47;;;;;;;;;66.00;48.00;;;;;1.76;58.23;100409.50;5096407;27;46089;-45
2022/12/15 08:36:15;;;;;;;;;54.50;40.25;;;;;1.77;58.52;100408.59;5096513;27;45458;-54
2022/12/15 08:38:41;;;;;;;;;66.75;48.25;;;;;1.81;58.05;100412.66;5096363;27;45332;-49
2022/12/15 08:41:09;;;;;;;;;73.50;50.00;;;;;1.74;57.82;100388.63;5096681;27;45537;-51
2022/12/15 08:43:34;;;;;;;;;69.75;53.00;;;;;1.86;57.81;100407.16;5096361;27;46272;-44
2022/12/15 08:46:00;;;;;;;;;68.00;48.00;;;;;1.87;58.06;100411.44;5096253;27;45508;-45
2022/12/15 08:48:25;;;;;;;;;70.50;49.50;;;;;1.90;57.92;100400.75;5096651;27;45314;-52
2022/12/15 08:50:54;;;;;;;;;63.00;46.75;;;;;1.88;58.12;100397.38;5096473;27;45448;-47
2022/12/15 08:53:19;;;;;;;;;70.00;52.00;;;;;1.93;57.54;100404.00;5096313;27;46035;-53
2022/12/15 08:55:45;;;;;;;;;69.75;50.00;;;;;1.94;57.75;100400.47;5095043;27;45527;-43
2022/12/15 08:58:10;;;;;;;;;62.75;46.25;;;;;1.94;57.42;100397.84;5097114;27;45535;-48
2022/12/15 09:00:35;;;;;;;;;68.50;53.00;;;;;1.96;57.46;100405.59;5097170;27;45660;-46
2022/12/15 09:03:01;;;;;;;;;66.75;52.25;;;;;1.98;57.30;100403.69;5095584;27;45401;-47
2022/12/15 09:05:26;;;;;;;;;77.00;53.75;;;;;1.95;57.72;100390.81;5096977;27;45464;-52
2022/12/15 09:07:55;;;;;;;;;61.50;47.25;;;;;1.98;57.28;100401.94;5097617;27;45487;-50
2022/12/15 09:10:22;;;;;;;;;66.50;52.00;;;;;2.02;57.09;100405.19;5097045;27;45505;-50
2022/12/15 09:12:47;;;;;;;;;74.50;56.50;;;;;2.03;57.11;100396.41;5096977;27;46075;-48
2022/12/15 09:15:13;;;;;;;;;73.50;51.00;;;;;2.08;57.09;100399.56;5095876;27;45425;-51
2022/12/15 09:17:38;;;;;;;;;66.25;51.00;;;;;2.12;57.25;100405.44;5096920;27;45425;-52
2022/12/15 09:20:04;;;;;;;;;68.25;50.00;;;;;2.15;56.50;100403.47;5096053;27;45307;-50
2022/12/15 09:22:30;;;;;;;;;76.75;53.50;;;;;2.21;56.43;100410.91;5096553;27;45386;-52
2022/12/15 09:24:55;;;;;;;;;68.25;52.00;;;;;2.27;56.71;100395.69;5096747;27;45524;-54
2022/12/15 09:27:21;;;;;;;;;41.50;34.75;;;;;2.30;55.86;100403.38;5096670;27;45405;-53
2022/12/15 09:29:46;;;;;;;;;73.25;52.50;;;;;2.36;56.03;100409.06;5095505;27;45509;-52
2022/12/15 09:32:12;;;;;;;;;54.25;45.00;;;;;2.41;56.58;100414.00;5096701;27;46174;-50
2022/12/15 09:34:38;;;;;;;;;68.25;52.00;;;;;2.35;55.90;100401.28;5096541;27;45405;-50
2022/12/15 09:37:04;;;;;;;;;68.00;50.00;;;;;2.54;55.33;100417.50;5096861;27;45486;-44
2022/12/15 09:39:29;;;;;;;;;76.50;55.25;;;;;2.66;55.84;100416.66;5096725;27;45299;-54
2022/12/15 09:41:59;;;;;;;;;62.00;49.00;;;;;2.99;55.17;100423.16;5096308;27;46278;-51
2022/12/15 09:44:27;;;;;;;;;64.50;50.00;;;;;3.29;54.66;100424.59;5096808;27;45437;-52
2022/12/15 09:47:14;;;;;;;;;60.75;49.00;;;;;3.36;54.97;100416.16;5096453;27;45479;-52
2022/12/15 09:49:56;;;;;;;;;69.75;51.75;;;;;3.54;54.37;100427.19;5096535;27;45350;-52
2022/12/15 09:52:32;;;;;;;;;68.25;49.00;;;;;3.59;53.73;100430.34;5096412;27;45451;-51
2022/12/15 09:54:58;;;;;;;;;76.00;55.00;;;;;3.90;53.16;100436.84;5096310;27;45496;-50
2022/12/15 09:57:51;;;;;;;;;68.75;49.00;;;;;4.24;53.23;100434.38;5096420;27;45504;-54
2022/12/15 10:00:20;;;;;;;;;66.25;49.00;;;;;4.61;51.83;100442.16;5096793;27;45592;-50
2022/12/15 10:02:48;;;;;;;;;70.50;52.75;;;;;4.91;51.60;100433.72;5096037;27;45460;-51
2022/12/15 10:05:28;;;;;;;;;68.50;50.00;;;;;4.95;51.20;100425.44;5095836;27;45428;-45
2022/12/15 10:07:54;;;;;;;;;71.50;53.00;;;;;4.94;51.10;100428.22;5096277;27;45370;-53
2022/12/15 10:10:34;;;;;;;;;61.50;49.50;;;;;4.82;51.20;100423.88;5088211;27;45792;-52
2022/12/15 10:13:07;;;;;;;;;73.75;52.75;;;;;4.72;50.66;100419.31;5077911;27;46234;-53
2022/12/15 10:15:44;;;;;;;;;70.25;49.75;;;;;4.70;50.79;100420.38;5116000;27;45426;-53
2022/12/15 10:18:25;;;;;;;;;69.25;49.00;;;;;4.67;51.79;100420.59;5114558;27;45442;-54
2022/12/15 10:20:56;;;;;;;;;67.75;51.25;;;;;4.59;51.40;100417.72;5096471;27;45467;-55
2022/12/15 10:23:24;;;;;;;;;68.25;53.00;;;;;4.56;51.38;100418.81;5095922;27;46144;-53
2022/12/15 10:25:58;;;;;;;;;59.75;47.50;;;;;4.57;51.04;100417.00;5095652;27;45542;-45
2022/12/15 10:28:29;;;;;;;;;55.00;44.25;;;;;4.58;51.64;100406.34;5095959;27;45567;-48
2022/12/15 10:31:01;;;;;;;;;67.25;47.50;;;;;4.62;51.06;100418.31;5078898;27;45394;-52
2022/12/15 10:33:34;;;;;;;;;64.00;46.25;;;;;4.78;51.56;100411.91;5075287;27;46172;-53
2022/12/15 10:35:59;;;;;;;;;61.75;46.75;;;;;4.87;50.46;100406.75;5075326;28;45333;-53
2022/12/15 10:38:33;;;;;;;;;67.50;51.25;;;;;4.94;50.98;100400.06;5075782;27;45443;-53
2022/12/15 10:41:02;;;;;;;;;59.25;47.50;;;;;5.06;50.50;100393.00;5075534;27;45408;-54
2022/12/15 10:43:32;;;;;;;;;67.25;52.50;;;;;5.24;50.00;100386.25;5075108;27;45358;-54
2022/12/15 10:46:26;;;;;;;;;63.50;48.50;;;;;5.72;50.42;100374.53;5086665;27;45489;-53
2022/12/15 10:48:56;;;;;;;;;69.75;49.75;;;;;5.89;48.67;100370.53;5095769;27;45372;-54
2022/12/15 10:51:30;;;;;;;;;67.75;48.00;;;;;5.85;48.76;100363.81;5096051;27;45573;-54
2022/12/15 10:54:12;;;;;;;;;67.00;49.50;;;;;5.90;49.19;100348.44;5095333;27;46224;-54
2022/12/15 10:56:51;;;;;;;;;63.25;46.50;;;;;5.95;48.85;100330.47;5087958;27;45482;-54
2022/12/15 10:59:30;;;;;;;;;67.75;50.25;;;;;5.85;49.07;100338.25;5085148;27;45553;-54
2022/12/15 11:02:24;;;;;;;;;65.75;47.75;;;;;5.76;49.16;100342.50;5075212;27;45494;-54
2022/12/15 11:04:58;;;;;;;;;59.00;47.50;;;;;5.93;49.24;100340.28;5074894;27;46291;-52
2022/12/15 11:07:30;;;;;;;;;60.50;45.50;;;;;6.03;48.57;100321.91;5084531;27;45803;-52
2022/12/15 11:10:01;;;;;;;;;66.00;51.75;;;;;6.09;48.80;100330.16;5095683;27;45448;-54
2022/12/15 11:15:20;;;;;;;;;66.50;48.75;;;;;6.49;47.23;100322.34;5095157;27;45466;-53
2022/12/15 11:17:50;;;;;;;;;63.75;48.50;;;;;6.72;46.78;100319.53;5095629;27;45447;-50
2022/12/15 11:20:26;;;;;;;;;63.50;45.25;;;;;6.90;47.01;100312.63;5095437;27;45477;-53
2022/12/15 11:22:59;;;;;;;;;63.75;48.00;;;;;7.09;45.89;100301.31;5095968;27;45394;-53
2022/12/15 11:25:37;;;;;;;;;63.00;49.50;;;;;6.95;45.91;100301.66;5095626;27;47114;-47
2022/12/15 11:28:14;;;;;;;;;62.50;48.50;;;;;6.76;46.34;100299.78;5095695;27;45494;-53
2022/12/15 11:30:46;;;;;;;;;63.25;51.50;;;;;6.72;46.52;100301.88;5095690;27;45817;-50
2022/12/15 11:33:12;;;;;;;;;57.50;46.00;;;;;7.18;46.54;100287.25;5095506;27;45885;-54
2022/12/15 11:35:49;;;;;;;;;65.75;49.50;;;;;7.47;45.90;100284.66;5095179;27;45353;-53
2022/12/15 11:38:27;;;;;;;;;63.75;49.50;;;;;6.97;45.24;100284.69;5082289;27;45195;-52
2022/12/15 11:40:57;;;;;;;;;69.00;47.00;;;;;6.53;46.54;100282.44;5078471;27;45460;-47
2022/12/15 11:43:34;;;;;;;;;63.50;49.25;;;;;6.20;46.66;100279.06;5078525;27;45571;-48
2022/12/15 11:46:21;;;;;;;;;64.50;48.25;;;;;5.95;47.26;100278.50;5078094;27;46276;-52
2022/12/15 11:49:13;;;;;;;;;51.00;44.00;;;;;5.79;47.58;100280.69;5077995;27;45421;-55
2022/12/15 11:51:41;;;;;;;;;55.00;43.50;;;;;5.68;47.67;100275.47;5075902;27;45475;-47
2022/12/15 11:54:19;;;;;;;;;61.50;43.75;;;;;5.61;47.66;100264.59;5086070;27;46003;-52
2022/12/15 11:57:22;;;;;;;;;61.25;46.25;;;;;5.58;48.26;100258.72;5098611;27;47085;-54
2022/12/15 11:59:57;;;;;;;;;65.75;46.50;;;;;5.61;48.27;100255.84;5035392;28;45422;-51
2022/12/15 12:02:44;;;;;;;;;62.00;50.25;;;;;5.59;48.29;100249.84;5035376;28;45379;-54
2022/12/15 12:05:40;;;;;;;;;62.00;46.50;;;;;5.63;48.45;100253.91;5035566;28;45857;-49
2022/12/15 12:08:08;;;;;;;;;53.25;45.00;;;;;5.64;47.92;100248.50;5034904;28;46656;-53
2022/12/15 12:10:46;;;;;;;;;71.25;50.75;;;;;5.66;48.92;100241.31;5034760;28;45409;-45
2022/12/15 12:13:45;;;;;;;;;71.50;47.50;;;;;5.60;48.28;100236.50;5034451;28;45566;-53
2022/12/15 12:16:16;;;;;;;;;47.50;41.50;;;;;5.60;48.31;100254.97;5034628;28;45591;-50
2022/12/15 12:18:51;;;;;;;;;53.50;43.25;;;;;5.56;48.04;100231.63;5033556;28;46143;-49
2022/12/15 12:21:26;;;;;;;;;65.75;44.75;;;;;5.60;47.56;100231.25;5033684;28;45500;-52
2022/12/15 12:24:28;;;;;;;;;49.00;35.00;;;;;5.78;47.66;100225.41;5033016;28;45435;-52
2022/12/15 12:27:02;;;;;;;;;57.75;45.25;;;;;6.00;47.19;100217.38;4936064;28;45440;-44
2022/12/15 12:29:31;;;;;;;;;50.00;44.50;;;;;6.22;46.65;100216.38;4934210;28;45975;-53
2022/12/15 12:32:13;;;;;;;;;65.75;45.75;;;;;6.47;46.73;100223.88;4935504;28;45463;-44
2022/12/15 12:34:53;;;;;;;;;59.25;42.50;;;;;6.65;45.84;100228.50;5018440;28;45529;-53
2022/12/15 12:37:25;;;;;;;;;62.25;45.75;;;;;6.74;45.21;100217.13;5013937;28;45498;-52
2022/12/15 12:39:55;;;;;;;;;57.75;46.50;;;;;6.81;44.83;100220.09;4997305;28;46159;-54
2022/12/15 12:42:32;;;;;;;;;53.25;43.75;;;;;6.91;45.10;100216.50;5012980;28;45547;-52
2022/12/15 12:44:57;;;;;;;;;58.50;43.25;;;;;6.96;44.57;100197.59;5013934;28;45415;-52
2022/12/15 12:47:28;;;;;;;;;60.75;47.00;;;;;7.06;44.68;100198.41;5014069;28;45468;-53
2022/12/15 12:50:03;;;;;;;;;58.50;44.25;;;;;7.12;44.35;100204.97;5011295;28;45495;-48
2022/12/15 12:52:35;;;;;;;;;51.00;42.25;;;;;7.01;44.67;100208.56;5012641;28;45523;-54
2022/12/15 12:55:20;;;;;;;;;58.75;45.50;;;;;6.55;45.04;100202.06;5013646;28;45525;-48
2022/12/15 12:57:46;;;;;;;;;57.25;45.00;;;;;6.26;45.31;100207.22;5013687;28;45495;-52
2022/12/15 13:00:30;;;;;;;;;56.50;45.25;;;;;6.07;45.88;100205.34;5013238;28;46355;-48
2022/12/15 13:03:10;;;;;;;;;69.50;52.50;;;;;5.96;46.25;100194.84;5071056;27;45722;-53
2022/12/15 13:05:37;;;;;;;;;67.50;48.75;;;;;5.82;46.46;100187.25;5095309;27;45431;-53
2022/12/15 13:08:06;;;;;;;;;63.75;48.50;;;;;5.72;47.10;100184.53;5096378;27;45486;-54
2022/12/15 13:10:37;;;;;;;;;52.00;43.75;;;;;5.63;47.00;100193.22;5096022;27;45378;-55
2022/12/15 13:13:43;;;;;;;;;63.00;48.50;;;;;5.57;47.49;100188.47;5096544;27;45412;-53
2022/12/15 13:16:30;;;;;;;;;54.00;43.75;;;;;5.46;47.65;100186.72;5097315;27;45346;-52
2022/12/15 13:19:05;;;;;;;;;58.00;43.50;;;;;5.44;47.53;100183.38;5097966;27;45456;-55
2022/12/15 13:21:40;;;;;;;;;57.00;45.25;;;;;5.40;47.73;100195.16;5096538;27;45877;-47
2022/12/15 13:24:28;;;;;;;;;54.50;44.50;;;;;5.30;48.36;100186.28;5096760;27;45424;-53
2022/12/15 13:27:09;;;;;;;;;53.00;44.75;;;;;5.31;48.95;100195.88;5096405;27;45552;-53
2022/12/15 13:29:52;;;;;;;;;57.75;41.50;;;;;5.25;48.69;100189.31;5096127;27;45383;-54
2022/12/15 13:32:35;;;;;;;;;47.25;40.00;;;;;5.22;48.42;100200.97;5095514;27;46235;-51
2022/12/15 13:35:23;;;;;;;;;54.25;44.50;;;;;5.15;49.20;100189.25;5096137;27;45458;-52
2022/12/15 13:37:55;;;;;;;;;64.00;45.25;;;;;5.15;48.47;100188.41;5096076;27;45470;-53
2022/12/15 13:40:33;;;;;;;;;56.75;42.75;;;;;5.10;48.69;100186.16;5094752;27;45455;-52
2022/12/15 13:43:05;;;;;;;;;62.00;46.25;;;;;5.08;49.14;100181.97;5095770;27;46433;-52
2022/12/15 13:45:36;;;;;;;;;56.00;44.75;;;;;5.03;49.13;100192.03;5095840;27;45419;-52
2022/12/15 13:48:15;;;;;;;;;52.00;41.25;;;;;4.99;49.60;100186.19;5096158;27;45487;-52
2022/12/15 13:51:02;;;;;;;;;43.00;28.00;;;;;4.93;49.95;100186.66;5095871;27;45357;-53
2022/12/15 13:53:36;;;;;;;;;50.00;38.75;;;;;4.83;49.23;100183.09;5095860;27;47285;-46
2022/12/15 13:56:11;;;;;;;;;62.00;43.25;;;;;4.83;49.48;100188.38;5095677;27;45484;-50
2022/12/15 13:58:54;;;;;;;;;61.25;42.75;;;;;4.79;49.30;100181.69;5095049;27;45397;-52
2022/12/15 14:01:30;;;;;;;;;48.50;37.50;;;;;4.75;49.69;100181.91;5095389;27;45603;-44